createdAt,value
2018-12-22T00:02:18.142Z,97.00
2018-12-22T00:04:45.880Z,97.10
2018-12-22T00:07:13.667Z,97.20
2018-12-22T00:09:41.427Z,96.90
2018-12-22T00:12:09.107Z,97.00
2018-12-22T00:14:36.811Z,97.10
2018-12-22T00:17:04.579Z,97.40
2018-12-22T00:19:32.278Z,97.40
2018-12-22T00:22:00.004Z,97.60
2018-12-22T00:24:27.660Z,97.70
2018-12-22T00:26:55.319Z,97.70
2018-12-22T00:29:23.013Z,97.70
2018-12-22T00:31:50.781Z,97.70
2018-12-22T00:34:18.503Z,97.80
2018-12-22T00:36:46.257Z,98.00
2018-12-22T00:39:14.044Z,98.00
2018-12-22T00:41:41.712Z,98.00
2018-12-22T00:44:09.433Z,98.00
2018-12-22T00:46:37.132Z,98.00
2018-12-22T00:49:04.815Z,98.10
2018-12-22T00:51:32.579Z,98.00
2018-12-22T00:54:00.255Z,97.90
2018-12-22T00:56:27.976Z,98.00
2018-12-22T00:58:55.772Z,98.10
2018-12-22T01:01:23.500Z,98.20
2018-12-22T01:03:51.169Z,98.20
2018-12-22T01:06:18.956Z,98.30
2018-12-22T01:08:46.658Z,98.30
2018-12-22T01:11:14.326Z,98.40
2018-12-22T01:13:42.039Z,98.50
2018-12-22T01:16:09.770Z,98.60
2018-12-22T01:18:37.448Z,98.60
2018-12-22T01:21:05.299Z,98.70
2018-12-22T01:23:32.940Z,98.80
2018-12-22T01:26:00.589Z,98.80
2018-12-22T01:28:28.300Z,98.80
2018-12-22T01:30:56.008Z,98.80
2018-12-22T01:33:23.646Z,99.00
2018-12-22T01:35:51.464Z,99.10
2018-12-22T01:38:19.280Z,99.10
2018-12-22T01:40:46.970Z,99.10
2018-12-22T01:43:14.671Z,99.20
2018-12-22T01:45:42.502Z,99.10
2018-12-22T01:48:10.188Z,99.20
2018-12-22T01:50:37.913Z,99.20
2018-12-22T01:53:05.572Z,99.20
2018-12-22T01:55:33.243Z,99.20
2018-12-22T01:58:01.000Z,99.20
2018-12-22T02:00:28.708Z,99.30
2018-12-22T02:02:56.438Z,99.40
2018-12-22T02:05:24.158Z,99.30
2018-12-22T02:07:51.864Z,99.40
2018-12-22T02:10:19.550Z,99.40
2018-12-22T02:12:47.283Z,99.60
2018-12-22T02:15:14.957Z,99.60
2018-12-22T02:17:42.669Z,99.80
2018-12-22T02:20:10.355Z,99.70
2018-12-22T02:22:38.039Z,99.70
2018-12-22T02:25:05.980Z,99.80
2018-12-22T02:27:33.674Z,99.70
2018-12-22T02:30:01.368Z,99.70
2018-12-22T02:32:29.132Z,99.90
2018-12-22T02:34:56.869Z,99.80
2018-12-22T02:37:24.569Z,99.70
2018-12-22T02:39:52.285Z,99.90
2018-12-22T02:42:19.962Z,99.70
2018-12-22T02:44:47.699Z,99.70
2018-12-22T02:47:15.384Z,99.80
2018-12-22T02:49:43.109Z,99.80
2018-12-22T02:52:10.825Z,99.70
2018-12-22T02:54:38.529Z,99.90
2018-12-22T02:57:06.254Z,99.90
2018-12-22T02:59:33.909Z,99.90
2018-12-22T03:02:01.597Z,99.90
2018-12-22T03:04:29.283Z,99.90
2018-12-22T03:06:57.123Z,99.90
2018-12-22T03:09:24.901Z,99.90
2018-12-22T03:11:52.558Z,99.90
2018-12-22T03:14:20.223Z,99.90
2018-12-22T03:16:47.883Z,99.90
2018-12-22T03:19:15.623Z,99.90
2018-12-22T03:21:43.322Z,99.90
2018-12-22T03:24:11.145Z,99.90
2018-12-22T03:26:38.861Z,99.90
2018-12-22T03:29:15.228Z,99.90
2018-12-22T03:31:36.218Z,99.90
2018-12-22T03:34:04.043Z,99.90
2018-12-22T03:36:31.835Z,99.90
2018-12-22T03:38:59.620Z,99.90
2018-12-22T03:41:27.336Z,99.90
2018-12-22T03:43:55.042Z,99.90
2018-12-22T03:46:22.713Z,99.90
2018-12-22T03:48:50.457Z,99.90
2018-12-22T03:51:18.117Z,99.90
2018-12-22T03:53:45.789Z,99.90
2018-12-22T03:56:13.511Z,99.90
2018-12-22T03:58:41.167Z,99.90
2018-12-22T04:01:08.895Z,99.90
2018-12-22T04:03:36.615Z,99.90
2018-12-22T04:06:04.317Z,99.90
2018-12-22T04:08:32.005Z,99.90
2018-12-22T04:10:59.761Z,99.90
2018-12-22T04:13:27.456Z,99.90
2018-12-22T04:15:55.160Z,99.90
2018-12-22T04:18:22.897Z,99.90
2018-12-22T04:20:50.580Z,99.90
2018-12-22T04:23:18.280Z,99.90
2018-12-22T04:25:45.992Z,99.90
2018-12-22T04:28:13.699Z,99.90
2018-12-22T04:30:41.406Z,99.90
2018-12-22T04:33:09.121Z,99.90
2018-12-22T04:35:36.805Z,99.90
2018-12-22T04:38:04.501Z,99.90
2018-12-22T04:40:32.242Z,99.90
2018-12-22T04:42:59.943Z,99.90
2018-12-22T04:45:27.630Z,99.90
2018-12-22T04:47:55.382Z,99.90
2018-12-22T04:50:23.197Z,99.90
2018-12-22T04:52:50.859Z,99.90
2018-12-22T04:55:18.603Z,99.90
2018-12-22T04:57:46.303Z,99.90
2018-12-22T05:00:14.021Z,99.90
2018-12-22T05:02:41.717Z,99.90
2018-12-22T05:05:09.541Z,99.90
2018-12-22T05:07:37.299Z,99.90
2018-12-22T05:10:05.613Z,99.90
2018-12-22T05:12:33.301Z,99.90
2018-12-22T05:15:01.010Z,99.90
2018-12-22T05:17:28.677Z,99.90
2018-12-22T05:19:56.341Z,99.90
2018-12-22T05:22:23.991Z,99.90
2018-12-22T05:24:51.688Z,99.90
2018-12-22T05:27:19.393Z,99.90
2018-12-22T05:29:51.747Z,99.90
2018-12-22T05:32:16.801Z,99.90
2018-12-22T05:34:44.628Z,99.90
2018-12-22T05:37:12.280Z,99.90
2018-12-22T05:39:39.965Z,99.90
2018-12-22T05:42:07.676Z,99.90
2018-12-22T05:44:35.358Z,99.90
2018-12-22T05:47:03.150Z,99.90
2018-12-22T05:49:30.818Z,99.90
2018-12-22T05:51:58.551Z,99.90
2018-12-22T05:54:26.374Z,99.90
2018-12-22T05:56:54.067Z,99.90
2018-12-22T05:59:21.756Z,99.90
2018-12-22T06:01:49.475Z,99.90
2018-12-22T06:04:17.228Z,99.90
2018-12-22T06:06:44.894Z,99.90
2018-12-22T06:09:12.712Z,99.90
2018-12-22T06:11:40.422Z,99.90
2018-12-22T06:14:08.107Z,99.90
2018-12-22T06:16:35.883Z,99.90
2018-12-22T06:19:03.614Z,99.90
2018-12-22T06:21:31.295Z,99.90
2018-12-22T06:23:59.000Z,99.90
2018-12-22T06:26:26.720Z,99.90
2018-12-22T06:28:54.436Z,99.90
2018-12-22T06:31:22.196Z,99.90
2018-12-22T06:33:49.878Z,99.90
2018-12-22T06:36:17.694Z,99.90
2018-12-22T06:38:45.421Z,99.90
2018-12-22T06:41:13.126Z,99.90
2018-12-22T06:43:40.817Z,99.90
2018-12-22T06:46:08.552Z,99.90
2018-12-22T06:48:36.257Z,99.90
2018-12-22T06:51:03.975Z,99.90
2018-12-22T06:53:31.687Z,99.90
2018-12-22T06:55:59.373Z,99.90
2018-12-22T06:58:27.050Z,99.90
2018-12-22T07:00:54.754Z,99.90
2018-12-22T07:03:22.444Z,99.90
2018-12-22T07:05:50.150Z,99.90
2018-12-22T07:08:17.870Z,99.90
2018-12-22T07:10:45.592Z,99.90
2018-12-22T07:13:13.282Z,99.90
2018-12-22T07:15:41.010Z,99.90
2018-12-22T07:18:08.728Z,99.90
2018-12-22T07:20:36.444Z,99.90
2018-12-22T07:23:04.139Z,99.90
2018-12-22T07:25:31.858Z,99.90
2018-12-22T07:27:59.530Z,99.90
2018-12-22T07:30:27.246Z,99.90
2018-12-22T07:32:57.137Z,99.90
2018-12-22T07:35:24.728Z,99.90
2018-12-22T07:37:52.470Z,99.90
2018-12-22T07:40:20.205Z,99.90
2018-12-22T07:42:47.874Z,99.90
2018-12-22T07:45:15.542Z,99.90
2018-12-22T07:47:43.292Z,99.90
2018-12-22T07:50:10.971Z,99.90
2018-12-22T07:52:38.722Z,99.90
2018-12-22T07:55:06.418Z,99.90
2018-12-22T07:57:34.130Z,99.90
2018-12-22T08:00:01.962Z,99.90
2018-12-22T08:02:29.666Z,99.90
2018-12-22T08:04:57.382Z,99.90
2018-12-22T08:07:25.378Z,99.90
2018-12-22T08:09:53.090Z,99.90
2018-12-22T08:12:20.774Z,99.90
2018-12-22T08:14:48.538Z,99.90
2018-12-22T08:17:16.256Z,99.90
2018-12-22T08:19:43.990Z,99.90
2018-12-22T08:22:11.786Z,99.90
2018-12-22T08:24:39.458Z,99.90
2018-12-22T08:27:07.178Z,99.90
2018-12-22T08:29:34.874Z,99.90
2018-12-22T08:32:02.580Z,99.90
2018-12-22T08:34:30.278Z,99.90
2018-12-22T08:36:58.010Z,99.90
2018-12-22T08:39:25.927Z,99.90
2018-12-22T08:41:53.716Z,99.90
2018-12-22T08:44:21.452Z,99.90
2018-12-22T08:46:49.158Z,99.90
2018-12-22T08:49:16.824Z,99.90
2018-12-22T08:51:44.520Z,99.90
2018-12-22T08:54:12.154Z,99.90
2018-12-22T08:56:39.823Z,99.90
2018-12-22T08:59:07.544Z,99.90
2018-12-22T09:01:35.254Z,99.90
2018-12-22T09:04:02.938Z,99.90
2018-12-22T09:06:30.698Z,99.90
2018-12-22T09:08:58.406Z,99.90
2018-12-22T09:11:26.226Z,99.90
2018-12-22T09:13:53.959Z,99.90
2018-12-22T09:16:21.781Z,99.90
2018-12-22T09:18:49.591Z,99.90
2018-12-22T09:21:17.361Z,99.90
2018-12-22T09:23:45.098Z,99.90
2018-12-22T09:26:12.788Z,99.90
2018-12-22T09:28:40.569Z,99.90
2018-12-22T09:31:08.289Z,99.90
2018-12-22T09:33:36.009Z,99.90
2018-12-22T09:36:03.792Z,99.90
2018-12-22T09:38:31.626Z,99.90
2018-12-22T09:40:59.403Z,99.90
2018-12-22T09:43:27.309Z,99.90
2018-12-22T09:45:55.015Z,99.90
2018-12-22T09:48:22.730Z,99.90
2018-12-22T09:50:50.453Z,99.90
2018-12-22T09:53:18.173Z,99.90
2018-12-22T09:55:45.845Z,99.90
2018-12-22T09:58:13.605Z,99.90
2018-12-22T10:00:41.281Z,99.90
2018-12-22T10:03:08.989Z,99.90
2018-12-22T10:05:41.412Z,99.90
2018-12-22T10:08:09.099Z,99.90
2018-12-22T10:10:37.004Z,99.90
2018-12-22T10:13:04.761Z,99.90
2018-12-22T10:15:32.471Z,99.90
2018-12-22T10:18:00.216Z,99.90
2018-12-22T10:20:28.061Z,99.90
2018-12-22T10:22:55.869Z,99.90
2018-12-22T10:25:23.582Z,99.90
2018-12-22T10:27:51.349Z,99.90
2018-12-22T10:30:19.409Z,99.90
2018-12-22T10:32:47.105Z,99.90
2018-12-22T10:35:23.813Z,99.90
2018-12-22T10:37:51.559Z,99.90
2018-12-22T10:40:19.269Z,99.90
2018-12-22T10:42:49.755Z,99.90
2018-12-22T10:45:17.467Z,99.90
2018-12-22T10:47:45.278Z,99.90
2018-12-22T10:50:13.008Z,99.90
2018-12-22T10:52:40.763Z,99.90
2018-12-22T10:55:10.885Z,99.90
2018-12-22T10:57:39.003Z,99.90
2018-12-22T11:00:10.090Z,99.90
2018-12-22T11:02:37.860Z,99.90
2018-12-22T11:05:08.277Z,99.90
2018-12-22T11:07:36.054Z,99.90
2018-12-22T11:10:04.682Z,99.90
2018-12-22T11:12:32.401Z,99.90
2018-12-22T11:15:01.294Z,99.90
2018-12-22T11:17:29.079Z,99.90
2018-12-22T11:19:56.852Z,99.90
2018-12-22T11:22:24.579Z,99.90
2018-12-22T11:24:52.321Z,99.90
2018-12-22T11:27:20.068Z,99.90
2018-12-22T11:29:47.934Z,99.90
2018-12-22T11:32:17.761Z,99.90
2018-12-22T11:34:45.748Z,99.90
2018-12-22T11:37:13.484Z,99.90
2018-12-22T11:39:41.146Z,99.90
2018-12-22T11:42:08.854Z,99.90
2018-12-22T11:44:36.578Z,99.90
2018-12-22T11:47:12.212Z,99.90
2018-12-22T11:49:42.394Z,99.90
2018-12-22T11:52:10.126Z,99.90
2018-12-22T11:54:37.852Z,99.90
2018-12-22T11:57:05.556Z,99.90
2018-12-22T11:59:33.285Z,99.50
2018-12-22T12:02:09.308Z,99.90
2018-12-22T12:04:30.784Z,99.40
2018-12-22T12:06:58.560Z,99.90
2018-12-22T12:09:26.244Z,99.20
2018-12-22T12:11:53.914Z,98.80
2018-12-22T12:14:22.582Z,98.60
2018-12-22T12:19:03.604Z,98.60
2018-12-22T12:21:31.770Z,99.10
2018-12-22T12:24:00.510Z,99.90
2018-12-22T12:26:28.611Z,99.90
2018-12-22T12:28:56.325Z,99.90
2018-12-22T12:31:24.132Z,99.80
2018-12-22T12:33:51.865Z,99.90
2018-12-22T12:36:19.507Z,99.90
2018-12-22T12:38:47.164Z,99.90
2018-12-22T12:41:15.073Z,99.70
2018-12-22T12:43:42.765Z,99.90
2018-12-22T12:46:10.559Z,99.60
2018-12-22T12:48:38.412Z,99.80
2018-12-22T12:51:06.151Z,99.60
2018-12-22T12:53:35.857Z,99.90
2018-12-22T12:56:03.780Z,99.90
2018-12-22T12:58:31.506Z,99.10
2018-12-22T13:00:59.257Z,99.40
2018-12-22T13:03:26.998Z,98.60
2018-12-22T13:05:54.725Z,99.40
2018-12-22T13:08:22.437Z,98.80
2018-12-22T13:10:50.163Z,99.40
2018-12-22T13:13:26.757Z,97.90
2018-12-22T13:15:54.499Z,98.00
2018-12-22T13:18:22.139Z,98.20
2018-12-22T13:20:49.855Z,97.10
2018-12-22T13:23:17.616Z,98.10
2018-12-22T13:25:45.359Z,97.10
2018-12-22T13:28:13.097Z,98.80
2018-12-22T13:30:40.833Z,98.60
2018-12-22T13:33:08.569Z,98.40
2018-12-22T13:35:36.365Z,99.00
2018-12-22T13:38:04.085Z,99.60
2018-12-22T13:40:31.902Z,99.90
2018-12-22T13:43:00.659Z,99.90
2018-12-22T13:45:28.487Z,99.90
2018-12-22T13:47:56.593Z,99.90
2018-12-22T13:50:24.618Z,99.90
2018-12-22T13:52:52.425Z,99.90
2018-12-22T13:55:20.161Z,99.90
2018-12-22T13:57:48.028Z,99.90
2018-12-22T14:00:15.768Z,99.90
2018-12-22T14:02:43.486Z,99.90
2018-12-22T14:05:14.933Z,99.90
2018-12-22T14:07:42.689Z,99.90
2018-12-22T14:10:10.710Z,99.90
2018-12-22T14:12:38.399Z,99.90
2018-12-22T14:15:09.749Z,99.90
2018-12-22T14:17:44.557Z,99.90
2018-12-22T14:20:15.076Z,99.90
2018-12-22T14:22:43.856Z,99.90
2018-12-22T14:25:28.777Z,99.90
2018-12-22T14:27:56.641Z,99.90
2018-12-22T14:30:25.140Z,99.80
2018-12-22T14:32:52.935Z,99.90
2018-12-22T14:35:34.203Z,99.80
2018-12-22T14:38:02.136Z,99.40
2018-12-22T14:40:29.867Z,99.10
2018-12-22T14:42:57.555Z,99.40
2018-12-22T14:45:25.239Z,98.80
2018-12-22T14:47:53.014Z,98.30
2018-12-22T14:50:20.989Z,97.80
2018-12-22T14:52:48.729Z,97.80
2018-12-22T14:55:16.437Z,97.10
2018-12-22T14:57:49.737Z,96.80
2018-12-22T15:00:17.429Z,96.30
2018-12-22T15:02:45.143Z,96.80
2018-12-22T15:05:12.902Z,96.80
2018-12-22T15:07:40.663Z,96.90
2018-12-22T15:10:08.658Z,96.10
2018-12-22T15:12:36.439Z,95.80
2018-12-22T15:15:05.358Z,95.90
2018-12-22T15:17:33.449Z,95.70
2018-12-22T15:20:01.158Z,95.40
2018-12-22T15:22:28.937Z,95.30
2018-12-22T15:24:56.690Z,95.10
2018-12-22T15:27:24.420Z,95.00
2018-12-22T15:29:52.133Z,94.90
2018-12-22T15:32:19.860Z,94.70
2018-12-22T15:34:47.556Z,94.60
2018-12-22T15:37:15.364Z,94.40
2018-12-22T15:39:43.024Z,94.30
2018-12-22T15:42:10.824Z,94.20
2018-12-22T15:44:38.532Z,93.90
2018-12-22T15:47:06.298Z,93.90
2018-12-22T15:49:34.454Z,93.80
2018-12-22T15:52:02.152Z,93.90
2018-12-22T15:54:29.830Z,93.70
2018-12-22T15:56:57.620Z,93.40
2018-12-22T15:59:25.452Z,93.80
2018-12-22T16:01:53.168Z,93.00
2018-12-22T16:04:20.894Z,93.00
2018-12-22T16:06:48.623Z,92.90
2018-12-22T16:09:16.390Z,92.90
2018-12-22T16:11:44.220Z,92.70
2018-12-22T16:14:11.994Z,92.90
2018-12-22T16:16:39.766Z,91.80
2018-12-22T16:19:07.512Z,92.10
2018-12-22T16:21:35.221Z,91.80
2018-12-22T16:24:03.093Z,91.70
2018-12-22T16:26:33.117Z,91.90
2018-12-22T16:29:09.222Z,92.40
2018-12-22T16:31:36.972Z,92.50
2018-12-22T16:34:04.688Z,92.20
2018-12-22T16:36:32.348Z,92.20
2018-12-22T16:39:00.386Z,92.80
2018-12-22T16:41:28.112Z,93.30
2018-12-22T16:43:55.864Z,93.20
2018-12-22T16:46:23.686Z,92.40
2018-12-22T16:48:51.385Z,91.80
2018-12-22T16:51:19.146Z,92.20
2018-12-22T16:53:46.932Z,92.50
2018-12-22T16:56:14.673Z,92.70
2018-12-22T16:58:45.460Z,93.50
2018-12-22T17:02:22.699Z,93.20
2018-12-22T17:04:50.356Z,93.00
2018-12-22T17:07:18.062Z,92.40
2018-12-22T17:09:45.780Z,92.40
2018-12-22T17:12:13.460Z,92.30
2018-12-22T17:14:41.192Z,92.60
2018-12-22T17:17:08.880Z,92.20
2018-12-22T17:19:36.530Z,92.00
2018-12-22T17:22:08.980Z,91.50
2018-12-22T17:24:58.880Z,91.50
2018-12-22T17:27:26.636Z,92.00
2018-12-22T17:29:54.320Z,92.10
2018-12-22T17:32:22.065Z,91.80
2018-12-22T17:34:50.238Z,92.60
2018-12-22T17:37:18.332Z,92.50
2018-12-22T17:39:46.165Z,91.60
2018-12-22T17:42:14.060Z,91.30
2018-12-22T17:44:41.800Z,91.30
2018-12-22T17:47:09.495Z,90.90
2018-12-22T17:49:37.263Z,90.90
2018-12-22T17:52:05.067Z,91.10
2018-12-22T17:54:32.869Z,91.10
2018-12-22T17:57:00.588Z,90.80
2018-12-22T17:59:28.233Z,90.60
2018-12-22T18:01:56.093Z,90.30
2018-12-22T18:04:23.906Z,91.00
2018-12-22T18:06:51.589Z,90.00
2018-12-22T18:09:19.413Z,89.80
2018-12-22T18:11:47.172Z,89.70
2018-12-22T18:14:14.897Z,90.30
2018-12-22T18:16:42.598Z,89.20
2018-12-22T18:19:10.289Z,89.50
2018-12-22T18:21:37.967Z,89.60
2018-12-22T18:24:05.675Z,90.00
2018-12-22T18:26:33.421Z,89.80
2018-12-22T18:29:01.235Z,89.80
2018-12-22T18:31:28.981Z,90.00
2018-12-22T18:33:56.724Z,89.70
2018-12-22T18:36:24.425Z,90.00
2018-12-22T18:38:52.234Z,89.90
2018-12-22T18:41:19.979Z,90.00
2018-12-22T18:43:47.690Z,90.10
2018-12-22T18:46:15.456Z,90.00
2018-12-22T18:48:43.221Z,89.80
2018-12-22T18:51:11.024Z,89.90
2018-12-22T18:53:38.905Z,89.70
2018-12-22T18:56:06.691Z,89.60
2018-12-22T18:58:34.337Z,90.10
2018-12-22T19:01:02.064Z,90.40
2018-12-22T19:03:29.781Z,89.50
2018-12-22T19:05:57.469Z,90.10
2018-12-22T19:08:25.222Z,90.00
2018-12-22T19:10:57.693Z,90.40
2018-12-22T19:13:25.695Z,90.60
2018-12-22T19:15:53.406Z,90.50
2018-12-22T19:18:21.149Z,91.10
2018-12-22T19:20:51.015Z,91.30
2018-12-22T19:23:20.034Z,91.80
2018-12-22T19:25:47.799Z,92.10
2018-12-22T19:28:15.511Z,92.20
2018-12-22T19:30:44.479Z,92.60
2018-12-22T19:33:12.463Z,92.80
2018-12-22T19:35:40.173Z,93.20
2018-12-22T19:38:07.845Z,93.40
2018-12-22T19:40:35.553Z,93.80
2018-12-22T19:43:03.341Z,94.00
2018-12-22T19:45:31.079Z,93.80
2018-12-22T19:47:59.018Z,93.90
2018-12-22T19:50:26.856Z,94.00
2018-12-22T19:52:54.536Z,94.50
2018-12-22T19:55:22.289Z,94.30
2018-12-22T19:57:50.088Z,94.40
2018-12-22T20:00:17.842Z,94.40
2018-12-22T20:02:45.540Z,94.50
2018-12-22T20:05:13.284Z,94.70
2018-12-22T20:07:40.983Z,94.70
2018-12-22T20:10:08.710Z,94.80
2018-12-22T20:12:36.420Z,94.90
2018-12-22T20:15:04.539Z,94.90
2018-12-22T20:17:32.272Z,94.80
2018-12-22T20:20:00.048Z,94.60
2018-12-22T20:22:27.924Z,94.80
2018-12-22T20:24:55.649Z,94.90
2018-12-22T20:27:23.362Z,95.10
2018-12-22T20:29:52.094Z,95.10
2018-12-22T20:32:19.844Z,95.00
2018-12-22T20:34:47.704Z,95.00
2018-12-22T20:37:15.472Z,95.00
2018-12-22T20:39:43.234Z,95.40
2018-12-22T20:42:10.923Z,95.50
2018-12-22T20:44:38.613Z,95.70
2018-12-22T20:47:06.427Z,95.80
2018-12-22T20:49:34.159Z,95.60
2018-12-22T20:52:01.847Z,95.60
2018-12-22T20:54:29.562Z,95.40
2018-12-22T20:56:57.301Z,95.40
2018-12-22T20:59:25.065Z,95.70
2018-12-22T21:01:52.770Z,95.50
2018-12-22T21:04:20.488Z,95.50
2018-12-22T21:06:48.250Z,95.60
2018-12-22T21:09:16.026Z,95.90
2018-12-22T21:11:43.724Z,95.50
2018-12-22T21:14:11.476Z,95.40
2018-12-22T21:16:39.184Z,95.50
2018-12-22T21:19:06.900Z,95.60
2018-12-22T21:21:34.644Z,96.00
2018-12-22T21:24:02.404Z,95.50
2018-12-22T21:26:30.168Z,95.40
2018-12-22T21:28:58.000Z,95.30
2018-12-22T21:31:25.740Z,95.40
2018-12-22T21:33:53.460Z,95.50
2018-12-22T21:36:21.166Z,95.40
2018-12-22T21:38:48.889Z,95.20
2018-12-22T21:41:16.581Z,95.10
2018-12-22T21:43:44.352Z,95.30
2018-12-22T21:46:12.080Z,95.50
2018-12-22T21:48:39.796Z,95.50
2018-12-22T21:51:07.712Z,95.20
2018-12-22T21:53:35.573Z,95.00
2018-12-22T21:56:03.391Z,94.90
2018-12-22T21:58:31.158Z,94.70
2018-12-22T22:00:58.866Z,94.50
2018-12-22T22:03:26.680Z,94.60
2018-12-22T22:05:54.402Z,94.60
2018-12-22T22:08:22.181Z,94.60
2018-12-22T22:10:49.942Z,94.70
2018-12-22T22:13:17.634Z,94.80
2018-12-22T22:15:45.552Z,94.40
2018-12-22T22:18:13.391Z,94.10
2018-12-22T22:20:41.120Z,94.20
2018-12-22T22:23:08.938Z,94.30
2018-12-22T22:25:36.781Z,94.40
2018-12-22T22:28:04.536Z,94.40
2018-12-22T22:30:32.345Z,94.10
2018-12-22T22:33:00.129Z,93.90
2018-12-22T22:35:27.845Z,94.10
2018-12-22T22:37:55.573Z,94.40
2018-12-22T22:40:23.289Z,94.70
2018-12-22T22:42:51.120Z,93.70
2018-12-22T22:45:18.907Z,93.70
2018-12-22T22:47:46.667Z,93.80
2018-12-22T22:50:14.417Z,93.90
2018-12-22T22:52:42.300Z,93.60
2018-12-22T22:55:10.037Z,93.20
2018-12-22T22:57:37.761Z,93.20
2018-12-22T23:00:09.784Z,93.10
2018-12-22T23:02:37.621Z,92.70
2018-12-22T23:05:05.477Z,93.20
2018-12-22T23:07:33.312Z,92.60
2018-12-22T23:10:01.935Z,92.60
2018-12-22T23:12:29.618Z,92.60
2018-12-22T23:14:57.365Z,92.20
2018-12-22T23:17:25.060Z,91.70
2018-12-22T23:19:52.927Z,91.30
2018-12-22T23:22:20.895Z,91.10
2018-12-22T23:24:48.698Z,91.20
2018-12-22T23:27:16.411Z,91.20
2018-12-22T23:29:44.228Z,90.60
2018-12-22T23:32:11.948Z,90.50
2018-12-22T23:34:39.680Z,90.60
2018-12-22T23:37:07.504Z,90.50
2018-12-22T23:39:35.264Z,90.40
2018-12-22T23:42:03.122Z,90.40
2018-12-22T23:44:30.983Z,90.30
2018-12-22T23:46:58.759Z,90.00
2018-12-22T23:49:26.548Z,90.00
2018-12-22T23:51:54.311Z,89.50
2018-12-22T23:54:21.990Z,89.40
2018-12-22T23:56:49.694Z,89.00
2018-12-22T23:59:17.440Z,89.60
